Das ist die Wetter- und Hausseite der Bittkau's aus Magdeburg Ottersleben


Hier werden aktuelle Daten aus der privaten Wetterstation und

andere lokale Wettervorhersagen bereitgestellt




Thunder radar more information blitzortung!


Rain radar more information rain snow radar



Es ist keine erhöhte Aufmerksamkeit aufgrund des Wetters notwendig.    Es gibt keine Warnungen.

METAR-Meldungen aus der Umgebung

   
EDDP - Leipzig
Aktualisierung: 19.05.2019 12:50
leicht bewölkt  
leicht bewölkt  
   Wind: OSO 16.7 km/h
Wind: OSO 16.7 km/h
Temperatur: 22°C
Taupunkt: 12°C
Luftfeuchte: 53%
Luftdruck: 1004 hPa
Bewölkt: leicht bewölkt
Sichtbarkeit: More than 10 km
Bewölkung: leicht bewölkt 1219.2 m
EDDP 191050Z 12009KT 070V150 9999 FEW040 22/12 Q1004 NOSIG
EDDC - Dresden
Aktualisierung: 19.05.2019 12:50
Klar  
Klar  
   Wind: SO 18.5 km/h
Wind: SO 18.5 km/h
Temperatur: 22°C
Taupunkt: 9°C
Luftfeuchte: 44%
Luftdruck: 1005 hPa
Sichtbarkeit: More than 10 km
Bewölkung: Klar
EDDC 191050Z 14010KT 100V180 CAVOK 22/09 Q1005 NOSIG
EDDE - Erfurt
Aktualisierung: 19.05.2019 12:50
leicht bewölkt  
leicht bewölkt  
   Wind: Norden 13 km/h
Wind: Norden 13 km/h
Temperatur: 20°C
Taupunkt: 13°C
Luftfeuchte: 64%
Luftdruck: 1004 hPa
Bewölkt: leicht bewölkt
Sichtbarkeit: More than 10 km
Bewölkung: leicht bewölkt 792.5 m
EDDE 191050Z 01007KT 270V060 9999 FEW026 20/13 Q1004 NOSIG
EDVE - Braunschweig
Aktualisierung: 19.05.2019 12:50
Klar  
Klar  
   Wind: Osten 18.5 km/h
Wind: Osten 18.5 km/h
Temperatur: 22°C
Taupunkt: 8°C
Luftfeuchte: 41%
Luftdruck: 1005 hPa
Sichtbarkeit: More than 10 km
Bewölkung: Klar
EDVE 191050Z 09010KT 060V120 CAVOK 22/08 Q1005
EDDV - Hannover
Aktualisierung: 19.05.2019 12:50
Klar  
Klar  
   Wind: Osten 24.1 km/h
Wind: Osten 24.1 km/h
Temperatur: 22°C
Taupunkt: 9°C
Luftfeuchte: 44%
Luftdruck: 1005 hPa
Sichtbarkeit: More than 10 km
Bewölkung: Klar
EDDV 191050Z 08013KT CAVOK 22/09 Q1005 NOSIG
EDDT - Berlin
Aktualisierung: 19.05.2019 12:50
Klar  
Klar  
   Wind: Osten 18.5 km/h
Wind: Osten 18.5 km/h
Temperatur: 24°C
Taupunkt: 10°C
Luftfeuchte: 41%
Luftdruck: 1005 hPa
Sichtbarkeit: More than 10 km
Bewölkung: Klar
EDDT 191050Z 10010KT 070V150 CAVOK 24/10 Q1005 NOSIG
EDDE - Schwerin
Aktualisierung: 19.05.2019 12:50
leicht bewölkt  
leicht bewölkt  
   Wind: Norden 13 km/h
Wind: Norden 13 km/h
Temperatur: 20°C
Taupunkt: 13°C
Luftfeuchte: 64%
Luftdruck: 1004 hPa
Bewölkt: leicht bewölkt
Sichtbarkeit: More than 10 km
Bewölkung: leicht bewölkt 792.5 m
EDDE 191050Z 01007KT 270V060 9999 FEW026 20/13 Q1004 NOSIG
EDHI - Hamburg
Aktualisierung: 19.05.2019 12:50
Klar  
Klar  
   Wind: NO 11.1 km/h
Wind: NO 11.1 km/h
Temperatur: 20°C
Taupunkt: 13°C
Luftfeuchte: 64%
Luftdruck: 1006 hPa
Bewölkt: Klar
Sichtbarkeit: More than 10 km
Bewölkung: Klar
EDHI 191050Z AUTO 04006KT 360V080 9999 // NCD 20/13 Q1006
EDDK - Köln-Bonn
Aktualisierung: 19.05.2019 12:50
leicht bewölkt  
leicht bewölkt  
   Wind: variiert 9.3 km/h
Wind: variiert 9.3 km/h
Temperatur: 20°C
Taupunkt: 13°C
Luftfeuchte: 64%
Luftdruck: 1004 hPa
Bewölkt: leicht bewölkt
Sichtbarkeit: More than 10 km
Bewölkung: leicht bewölkt 853.4 m
EDDK 191050Z VRB05KT 9999 FEW028 20/13 Q1004 NOSIG
EDHL - Lübeck-Blankensee
Aktualisierung: 19.05.2019 12:50
Klar  
Klar  
   Wind: Norden 11.1 km/h
Wind: Norden 11.1 km/h
Temperatur: 17°C
Taupunkt: 13°C
Luftfeuchte: 77%
Luftdruck: 1007 hPa
Sichtbarkeit: More than 10 km
Bewölkung: Klar
EDHL 191050Z 01006KT 320V060 CAVOK 17/13 Q1007
  

Script entwickelt von  Saratoga-weather.org Angepasst für das Template von  Weerstation Leuven

Sie finden die Wetterinfo auch auf:

Wetternetzwerk Deutschland

European Weather Network

Weather Underground

Regionalwetter-SA

wetter.com

wxforum.de

Genutzte Hardware, Software und WEB Anbieter:

Wetterstation
Ventus W928-Ultimate

Wetterprogramm
Meteohub

WetterComputer
RaspberryPI

Anbieter
WEB Provider One.com

Ventus W928-Ultimate

Meteohub

RaspberryPI

WEB Provider One.com